sensor_id;sensor_type;location;lat;lon;timestamp;temperature;humidity
26954;DHT22;14508;50.924;11.600;2023-12-04T00:02:12;-1.70;99.90
26954;DHT22;14508;50.924;11.600;2023-12-04T00:04:39;-1.60;99.90
26954;DHT22;14508;50.924;11.600;2023-12-04T00:07:07;-1.60;99.90
26954;DHT22;14508;50.924;11.600;2023-12-04T00:09:35;-1.60;99.90
26954;DHT22;14508;50.924;11.600;2023-12-04T00:12:04;-1.60;99.90
26954;DHT22;14508;50.924;11.600;2023-12-04T00:14:33;-1.50;99.90
26954;DHT22;14508;50.924;11.600;2023-12-04T00:17:01;-1.50;99.90
26954;DHT22;14508;50.924;11.600;2023-12-04T00:19:29;-1.50;99.90
26954;DHT22;14508;50.924;11.600;2023-12-04T00:21:57;-1.50;99.90
26954;DHT22;14508;50.924;11.600;2023-12-04T00:24:25;-1.50;99.90
26954;DHT22;14508;50.924;11.600;2023-12-04T00:26:52;-1.50;99.90
26954;DHT22;14508;50.924;11.600;2023-12-04T00:29:20;-1.40;99.90
26954;DHT22;14508;50.924;11.600;2023-12-04T00:31:49;-1.40;99.90
26954;DHT22;14508;50.924;11.600;2023-12-04T00:34:17;-1.40;99.90
26954;DHT22;14508;50.924;11.600;2023-12-04T00:36:45;-1.40;99.90
26954;DHT22;14508;50.924;11.600;2023-12-04T00:39:13;-1.40;99.90
26954;DHT22;14508;50.924;11.600;2023-12-04T00:41:41;-1.30;99.90
26954;DHT22;14508;50.924;11.600;2023-12-04T00:44:09;-1.30;99.90
26954;DHT22;14508;50.924;11.600;2023-12-04T00:46:37;-1.30;99.90
26954;DHT22;14508;50.924;11.600;2023-12-04T00:49:06;-1.30;99.90
26954;DHT22;14508;50.924;11.600;2023-12-04T00:51:37;-1.30;99.90
26954;DHT22;14508;50.924;11.600;2023-12-04T00:54:05;-1.20;99.90
26954;DHT22;14508;50.924;11.600;2023-12-04T00:56:33;-1.20;99.90
26954;DHT22;14508;50.924;11.600;2023-12-04T00:59:01;-1.30;99.90
26954;DHT22;14508;50.924;11.600;2023-12-04T01:01:30;-1.30;99.90
26954;DHT22;14508;50.924;11.600;2023-12-04T01:03:58;-1.30;99.90
26954;DHT22;14508;50.924;11.600;2023-12-04T01:06:27;-1.30;99.90
26954;DHT22;14508;50.924;11.600;2023-12-04T01:08:56;-1.30;99.90
26954;DHT22;14508;50.924;11.600;2023-12-04T01:11:24;-1.30;99.90
26954;DHT22;14508;50.924;11.600;2023-12-04T01:13:52;-1.20;99.90
26954;DHT22;14508;50.924;11.600;2023-12-04T01:16:20;-1.20;99.90
26954;DHT22;14508;50.924;11.600;2023-12-04T01:18:48;-1.20;99.90
26954;DHT22;14508;50.924;11.600;2023-12-04T01:21:15;-1.20;99.90
26954;DHT22;14508;50.924;11.600;2023-12-04T01:23:45;-1.10;99.90
26954;DHT22;14508;50.924;11.600;2023-12-04T01:26:12;-1.10;99.90
26954;DHT22;14508;50.924;11.600;2023-12-04T01:28:40;-1.10;99.90
26954;DHT22;14508;50.924;11.600;2023-12-04T01:31:08;-1.10;99.90
26954;DHT22;14508;50.924;11.600;2023-12-04T01:33:36;-1.10;99.90
26954;DHT22;14508;50.924;11.600;2023-12-04T01:36:05;-1.00;99.90
26954;DHT22;14508;50.924;11.600;2023-12-04T01:38:33;-1.00;99.90
26954;DHT22;14508;50.924;11.600;2023-12-04T01:41:02;-1.00;99.90
26954;DHT22;14508;50.924;11.600;2023-12-04T01:43:30;-1.00;99.90
26954;DHT22;14508;50.924;11.600;2023-12-04T01:46:01;-1.10;99.90
26954;DHT22;14508;50.924;11.600;2023-12-04T01:48:29;-1.10;99.90
26954;DHT22;14508;50.924;11.600;2023-12-04T01:50:58;-1.10;99.90
26954;DHT22;14508;50.924;11.600;2023-12-04T01:53:28;-1.20;99.90
26954;DHT22;14508;50.924;11.600;2023-12-04T01:55:56;-1.20;99.90
26954;DHT22;14508;50.924;11.600;2023-12-04T01:58:26;-1.30;99.90
26954;DHT22;14508;50.924;11.600;2023-12-04T02:00:54;-1.30;99.90
26954;DHT22;14508;50.924;11.600;2023-12-04T02:03:22;-1.30;99.90
26954;DHT22;14508;50.924;11.600;2023-12-04T02:05:50;-1.30;99.90
26954;DHT22;14508;50.924;11.600;2023-12-04T02:08:19;-1.30;99.90
26954;DHT22;14508;50.924;11.600;2023-12-04T02:10:47;-1.40;99.90
26954;DHT22;14508;50.924;11.600;2023-12-04T02:13:15;-1.30;99.90
26954;DHT22;14508;50.924;11.600;2023-12-04T02:15:45;-1.30;99.90
26954;DHT22;14508;50.924;11.600;2023-12-04T02:18:14;-1.30;99.90
26954;DHT22;14508;50.924;11.600;2023-12-04T02:20:42;-1.20;99.90
26954;DHT22;14508;50.924;11.600;2023-12-04T02:23:10;-1.20;99.90
26954;DHT22;14508;50.924;11.600;2023-12-04T02:25:39;-1.20;99.90
26954;DHT22;14508;50.924;11.600;2023-12-04T02:28:10;-1.10;99.90
26954;DHT22;14508;50.924;11.600;2023-12-04T02:30:41;-1.10;99.90
26954;DHT22;14508;50.924;11.600;2023-12-04T02:33:11;-1.10;99.90
26954;DHT22;14508;50.924;11.600;2023-12-04T02:35:42;-1.10;99.90
26954;DHT22;14508;50.924;11.600;2023-12-04T02:38:10;-1.10;99.90
26954;DHT22;14508;50.924;11.600;2023-12-04T02:40:40;-1.10;99.90
26954;DHT22;14508;50.924;11.600;2023-12-04T02:43:08;-1.10;99.90
26954;DHT22;14508;50.924;11.600;2023-12-04T02:45:36;-1.10;99.90
26954;DHT22;14508;50.924;11.600;2023-12-04T02:48:05;-1.10;99.90
26954;DHT22;14508;50.924;11.600;2023-12-04T02:50:33;-1.10;99.90
26954;DHT22;14508;50.924;11.600;2023-12-04T02:53:00;-1.10;99.90
26954;DHT22;14508;50.924;11.600;2023-12-04T02:55:28;-1.00;99.90
26954;DHT22;14508;50.924;11.600;2023-12-04T02:57:58;-1.00;99.90
26954;DHT22;14508;50.924;11.600;2023-12-04T03:00:25;-0.90;99.90
26954;DHT22;14508;50.924;11.600;2023-12-04T03:02:53;-0.90;99.90
26954;DHT22;14508;50.924;11.600;2023-12-04T03:05:21;-0.90;99.90
26954;DHT22;14508;50.924;11.600;2023-12-04T03:07:49;-0.80;99.90
26954;DHT22;14508;50.924;11.600;2023-12-04T03:10:17;-0.80;99.90
26954;DHT22;14508;50.924;11.600;2023-12-04T03:12:45;-0.80;99.90
26954;DHT22;14508;50.924;11.600;2023-12-04T03:15:14;-0.70;99.90
26954;DHT22;14508;50.924;11.600;2023-12-04T03:17:42;-0.70;99.90
26954;DHT22;14508;50.924;11.600;2023-12-04T03:20:10;-0.70;99.90
26954;DHT22;14508;50.924;11.600;2023-12-04T03:22:38;-0.70;99.90
26954;DHT22;14508;50.924;11.600;2023-12-04T03:25:07;-0.60;99.90
26954;DHT22;14508;50.924;11.600;2023-12-04T03:27:35;-0.60;99.90
26954;DHT22;14508;50.924;11.600;2023-12-04T03:30:04;-0.60;99.90
26954;DHT22;14508;50.924;11.600;2023-12-04T03:32:33;-0.70;99.90
26954;DHT22;14508;50.924;11.600;2023-12-04T03:35:01;-0.70;99.90
26954;DHT22;14508;50.924;11.600;2023-12-04T03:37:29;-0.70;99.90
26954;DHT22;14508;50.924;11.600;2023-12-04T03:39:57;-0.70;99.90
26954;DHT22;14508;50.924;11.600;2023-12-04T03:42:25;-0.60;99.90
26954;DHT22;14508;50.924;11.600;2023-12-04T03:44:53;-0.60;99.90
26954;DHT22;14508;50.924;11.600;2023-12-04T03:47:21;-0.60;99.90
26954;DHT22;14508;50.924;11.600;2023-12-04T03:49:51;-0.60;99.90
26954;DHT22;14508;50.924;11.600;2023-12-04T03:52:19;-0.60;99.90
26954;DHT22;14508;50.924;11.600;2023-12-04T03:54:47;-0.60;99.90
26954;DHT22;14508;50.924;11.600;2023-12-04T03:57:15;-0.60;99.90
26954;DHT22;14508;50.924;11.600;2023-12-04T03:59:43;-0.60;99.90
26954;DHT22;14508;50.924;11.600;2023-12-04T04:02:12;-0.60;99.90
26954;DHT22;14508;50.924;11.600;2023-12-04T04:04:40;-0.60;99.90
26954;DHT22;14508;50.924;11.600;2023-12-04T04:07:09;-0.60;99.90
26954;DHT22;14508;50.924;11.600;2023-12-04T04:09:37;-0.60;99.90
26954;DHT22;14508;50.924;11.600;2023-12-04T04:12:05;-0.60;99.90
26954;DHT22;14508;50.924;11.600;2023-12-04T04:14:33;-0.60;99.90
26954;DHT22;14508;50.924;11.600;2023-12-04T04:17:01;-0.60;99.90
26954;DHT22;14508;50.924;11.600;2023-12-04T04:19:29;-0.60;99.90
26954;DHT22;14508;50.924;11.600;2023-12-04T04:21:57;-0.70;99.90
26954;DHT22;14508;50.924;11.600;2023-12-04T04:24:26;-0.70;99.90
26954;DHT22;14508;50.924;11.600;2023-12-04T04:26:54;-0.70;99.90
26954;DHT22;14508;50.924;11.600;2023-12-04T04:29:22;-0.70;99.90
26954;DHT22;14508;50.924;11.600;2023-12-04T04:31:49;-0.70;99.90
26954;DHT22;14508;50.924;11.600;2023-12-04T04:34:18;-0.70;99.90
26954;DHT22;14508;50.924;11.600;2023-12-04T04:36:46;-0.70;99.90
26954;DHT22;14508;50.924;11.600;2023-12-04T04:39:14;-0.70;99.90
26954;DHT22;14508;50.924;11.600;2023-12-04T04:41:44;-0.70;99.90
26954;DHT22;14508;50.924;11.600;2023-12-04T04:44:12;-0.70;99.90
26954;DHT22;14508;50.924;11.600;2023-12-04T04:46:39;-0.70;99.90
26954;DHT22;14508;50.924;11.600;2023-12-04T04:49:07;-0.70;99.90
26954;DHT22;14508;50.924;11.600;2023-12-04T04:51:35;-0.70;99.90
26954;DHT22;14508;50.924;11.600;2023-12-04T04:54:03;-0.70;99.90
26954;DHT22;14508;50.924;11.600;2023-12-04T04:56:31;-0.80;99.90
26954;DHT22;14508;50.924;11.600;2023-12-04T04:59:01;-0.80;99.90
26954;DHT22;14508;50.924;11.600;2023-12-04T05:01:28;-0.80;99.90
26954;DHT22;14508;50.924;11.600;2023-12-04T05:03:57;-0.80;99.90
26954;DHT22;14508;50.924;11.600;2023-12-04T05:06:26;-0.90;99.90
26954;DHT22;14508;50.924;11.600;2023-12-04T05:08:54;-0.90;99.90
26954;DHT22;14508;50.924;11.600;2023-12-04T05:11:21;-1.00;99.90
26954;DHT22;14508;50.924;11.600;2023-12-04T05:13:50;-1.10;99.90
26954;DHT22;14508;50.924;11.600;2023-12-04T05:16:19;-1.10;99.90
26954;DHT22;14508;50.924;11.600;2023-12-04T05:18:47;-1.20;99.90
26954;DHT22;14508;50.924;11.600;2023-12-04T05:21:15;-1.20;99.90
26954;DHT22;14508;50.924;11.600;2023-12-04T05:23:43;-1.30;99.90
26954;DHT22;14508;50.924;11.600;2023-12-04T05:26:11;-1.30;99.90
26954;DHT22;14508;50.924;11.600;2023-12-04T05:28:39;-1.40;99.90
26954;DHT22;14508;50.924;11.600;2023-12-04T05:31:07;-1.40;99.90
26954;DHT22;14508;50.924;11.600;2023-12-04T05:33:36;-1.40;99.90
26954;DHT22;14508;50.924;11.600;2023-12-04T05:36:10;-1.40;99.90
26954;DHT22;14508;50.924;11.600;2023-12-04T05:38:38;-1.40;99.90
26954;DHT22;14508;50.924;11.600;2023-12-04T05:41:06;-1.40;99.90
26954;DHT22;14508;50.924;11.600;2023-12-04T05:43:33;-1.40;99.90
26954;DHT22;14508;50.924;11.600;2023-12-04T05:46:01;-1.40;99.90
26954;DHT22;14508;50.924;11.600;2023-12-04T05:48:29;-1.40;99.90
26954;DHT22;14508;50.924;11.600;2023-12-04T05:50:58;-1.50;99.90
26954;DHT22;14508;50.924;11.600;2023-12-04T05:53:26;-1.50;99.90
26954;DHT22;14508;50.924;11.600;2023-12-04T05:55:55;-1.50;99.90
26954;DHT22;14508;50.924;11.600;2023-12-04T05:58:23;-1.50;99.90
26954;DHT22;14508;50.924;11.600;2023-12-04T06:00:51;-1.50;99.90
26954;DHT22;14508;50.924;11.600;2023-12-04T06:03:19;-1.60;99.90
26954;DHT22;14508;50.924;11.600;2023-12-04T06:05:47;-1.60;99.90
26954;DHT22;14508;50.924;11.600;2023-12-04T06:08:17;-1.70;99.90
26954;DHT22;14508;50.924;11.600;2023-12-04T06:10:46;-1.80;99.90
26954;DHT22;14508;50.924;11.600;2023-12-04T06:13:13;-1.80;99.90
26954;DHT22;14508;50.924;11.600;2023-12-04T06:15:41;-1.80;99.90
26954;DHT22;14508;50.924;11.600;2023-12-04T06:18:10;-1.80;99.90
26954;DHT22;14508;50.924;11.600;2023-12-04T06:20:38;-1.80;99.90
26954;DHT22;14508;50.924;11.600;2023-12-04T06:23:07;-1.80;99.90
26954;DHT22;14508;50.924;11.600;2023-12-04T06:25:36;-1.80;99.90
26954;DHT22;14508;50.924;11.600;2023-12-04T06:28:05;-1.80;99.90
26954;DHT22;14508;50.924;11.600;2023-12-04T06:30:34;-1.80;99.90
26954;DHT22;14508;50.924;11.600;2023-12-04T06:33:02;-1.80;99.90
26954;DHT22;14508;50.924;11.600;2023-12-04T06:35:31;-1.80;99.90
26954;DHT22;14508;50.924;11.600;2023-12-04T06:38:01;-1.90;99.90
26954;DHT22;14508;50.924;11.600;2023-12-04T06:40:33;-1.90;99.90
26954;DHT22;14508;50.924;11.600;2023-12-04T06:43:03;-1.90;99.90
26954;DHT22;14508;50.924;11.600;2023-12-04T06:45:32;-1.90;99.90
26954;DHT22;14508;50.924;11.600;2023-12-04T06:48:00;-1.90;99.90
26954;DHT22;14508;50.924;11.600;2023-12-04T06:50:28;-1.90;99.90
26954;DHT22;14508;50.924;11.600;2023-12-04T06:52:56;-1.80;99.90
26954;DHT22;14508;50.924;11.600;2023-12-04T06:55:24;-1.80;99.90
26954;DHT22;14508;50.924;11.600;2023-12-04T06:57:52;-1.80;99.90
26954;DHT22;14508;50.924;11.600;2023-12-04T07:00:22;-1.80;99.90
26954;DHT22;14508;50.924;11.600;2023-12-04T07:02:50;-1.80;99.90
26954;DHT22;14508;50.924;11.600;2023-12-04T07:05:19;-1.80;99.90
26954;DHT22;14508;50.924;11.600;2023-12-04T07:07:48;-1.70;99.90
26954;DHT22;14508;50.924;11.600;2023-12-04T07:10:16;-1.80;99.90
26954;DHT22;14508;50.924;11.600;2023-12-04T07:12:44;-1.70;99.90
26954;DHT22;14508;50.924;11.600;2023-12-04T07:15:12;-1.70;99.90
26954;DHT22;14508;50.924;11.600;2023-12-04T07:17:42;-1.80;99.90
26954;DHT22;14508;50.924;11.600;2023-12-04T07:20:10;-1.80;99.90
26954;DHT22;14508;50.924;11.600;2023-12-04T07:22:39;-1.70;99.90
26954;DHT22;14508;50.924;11.600;2023-12-04T07:25:08;-1.70;99.90
26954;DHT22;14508;50.924;11.600;2023-12-04T07:27:36;-1.60;99.90
26954;DHT22;14508;50.924;11.600;2023-12-04T07:30:05;-1.50;99.90
26954;DHT22;14508;50.924;11.600;2023-12-04T07:32:34;-1.50;99.90
26954;DHT22;14508;50.924;11.600;2023-12-04T07:35:04;-1.40;99.90
26954;DHT22;14508;50.924;11.600;2023-12-04T07:37:33;-1.30;99.90
26954;DHT22;14508;50.924;11.600;2023-12-04T07:40:01;-1.30;99.90
26954;DHT22;14508;50.924;11.600;2023-12-04T07:42:30;-1.20;99.90
26954;DHT22;14508;50.924;11.600;2023-12-04T07:44:58;-1.20;99.90
26954;DHT22;14508;50.924;11.600;2023-12-04T07:47:27;-1.10;99.90
26954;DHT22;14508;50.924;11.600;2023-12-04T07:49:55;-1.10;99.90
26954;DHT22;14508;50.924;11.600;2023-12-04T07:52:24;-1.00;99.90
26954;DHT22;14508;50.924;11.600;2023-12-04T07:54:52;-0.90;99.90
26954;DHT22;14508;50.924;11.600;2023-12-04T07:57:20;-0.90;99.90
26954;DHT22;14508;50.924;11.600;2023-12-04T07:59:48;-0.80;99.90
26954;DHT22;14508;50.924;11.600;2023-12-04T08:02:18;-0.80;99.90
26954;DHT22;14508;50.924;11.600;2023-12-04T08:04:46;-0.70;99.90
26954;DHT22;14508;50.924;11.600;2023-12-04T08:07:14;-0.70;99.90
26954;DHT22;14508;50.924;11.600;2023-12-04T08:09:44;-0.70;99.90
26954;DHT22;14508;50.924;11.600;2023-12-04T08:12:12;-0.60;99.90
26954;DHT22;14508;50.924;11.600;2023-12-04T08:14:40;-0.70;99.90
26954;DHT22;14508;50.924;11.600;2023-12-04T08:17:07;-0.60;99.90
26954;DHT22;14508;50.924;11.600;2023-12-04T08:19:35;-0.70;99.90
26954;DHT22;14508;50.924;11.600;2023-12-04T08:22:04;-0.60;99.90
26954;DHT22;14508;50.924;11.600;2023-12-04T08:24:33;-0.60;99.90
26954;DHT22;14508;50.924;11.600;2023-12-04T08:27:02;-0.60;99.90
26954;DHT22;14508;50.924;11.600;2023-12-04T08:29:30;-0.50;99.90
26954;DHT22;14508;50.924;11.600;2023-12-04T08:31:58;-0.50;99.90
26954;DHT22;14508;50.924;11.600;2023-12-04T08:34:26;-0.40;99.90
26954;DHT22;14508;50.924;11.600;2023-12-04T08:36:54;-0.40;99.90
26954;DHT22;14508;50.924;11.600;2023-12-04T08:39:22;-0.40;99.90
26954;DHT22;14508;50.924;11.600;2023-12-04T08:41:50;-0.40;99.90
26954;DHT22;14508;50.924;11.600;2023-12-04T08:44:30;-0.40;99.90
26954;DHT22;14508;50.924;11.600;2023-12-04T08:46:59;-0.30;99.90
26954;DHT22;14508;50.924;11.600;2023-12-04T08:49:27;-0.10;99.90
26954;DHT22;14508;50.924;11.600;2023-12-04T08:52:08;0.10;99.90
26954;DHT22;14508;50.924;11.600;2023-12-04T08:54:39;0.30;99.90
26954;DHT22;14508;50.924;11.600;2023-12-04T08:57:07;0.40;99.90
26954;DHT22;14508;50.924;11.600;2023-12-04T08:59:37;0.50;99.90
26954;DHT22;14508;50.924;11.600;2023-12-04T09:02:05;0.60;99.90
26954;DHT22;14508;50.924;11.600;2023-12-04T09:04:37;0.70;99.30
26954;DHT22;14508;50.924;11.600;2023-12-04T09:07:05;0.80;98.90
26954;DHT22;14508;50.924;11.600;2023-12-04T09:09:36;0.90;98.80
26954;DHT22;14508;50.924;11.600;2023-12-04T09:12:04;1.00;97.90
26954;DHT22;14508;50.924;11.600;2023-12-04T09:14:34;1.10;97.90
26954;DHT22;14508;50.924;11.600;2023-12-04T09:17:04;1.30;97.40
26954;DHT22;14508;50.924;11.600;2023-12-04T09:19:32;1.40;97.10
26954;DHT22;14508;50.924;11.600;2023-12-04T09:22:00;1.50;96.50
26954;DHT22;14508;50.924;11.600;2023-12-04T09:24:42;1.60;95.90
26954;DHT22;14508;50.924;11.600;2023-12-04T09:27:11;1.70;94.70
26954;DHT22;14508;50.924;11.600;2023-12-04T09:29:40;1.70;93.30
26954;DHT22;14508;50.924;11.600;2023-12-04T09:32:10;1.70;93.50
26954;DHT22;14508;50.924;11.600;2023-12-04T09:34:38;1.70;93.60
26954;DHT22;14508;50.924;11.600;2023-12-04T09:37:06;1.60;93.00
26954;DHT22;14508;50.924;11.600;2023-12-04T09:39:38;1.70;93.20
26954;DHT22;14508;50.924;11.600;2023-12-04T09:42:07;1.70;92.60
26954;DHT22;14508;50.924;11.600;2023-12-04T09:44:36;1.70;92.80
26954;DHT22;14508;50.924;11.600;2023-12-04T09:47:05;1.80;92.80
26954;DHT22;14508;50.924;11.600;2023-12-04T09:49:37;1.90;92.00
26954;DHT22;14508;50.924;11.600;2023-12-04T09:52:06;2.10;91.90
26954;DHT22;14508;50.924;11.600;2023-12-04T09:54:35;2.30;91.60
26954;DHT22;14508;50.924;11.600;2023-12-04T09:57:04;2.40;90.80
26954;DHT22;14508;50.924;11.600;2023-12-04T09:59:33;2.50;90.50
26954;DHT22;14508;50.924;11.600;2023-12-04T10:02:03;2.60;90.10
26954;DHT22;14508;50.924;11.600;2023-12-04T10:04:33;2.60;88.40
26954;DHT22;14508;50.924;11.600;2023-12-04T10:07:03;2.70;88.30
26954;DHT22;14508;50.924;11.600;2023-12-04T10:09:31;2.80;87.90
26954;DHT22;14508;50.924;11.600;2023-12-04T10:11:59;2.90;87.10
26954;DHT22;14508;50.924;11.600;2023-12-04T10:14:27;3.10;86.40
26954;DHT22;14508;50.924;11.600;2023-12-04T10:16:56;3.10;84.80
26954;DHT22;14508;50.924;11.600;2023-12-04T10:19:27;3.10;83.20
26954;DHT22;14508;50.924;11.600;2023-12-04T10:21:57;3.10;82.60
26954;DHT22;14508;50.924;11.600;2023-12-04T10:24:30;3.10;82.70
26954;DHT22;14508;50.924;11.600;2023-12-04T10:26:59;3.00;82.00
26954;DHT22;14508;50.924;11.600;2023-12-04T10:29:28;3.00;82.00
26954;DHT22;14508;50.924;11.600;2023-12-04T10:32:00;2.90;81.70
26954;DHT22;14508;50.924;11.600;2023-12-04T10:34:30;3.00;81.50
26954;DHT22;14508;50.924;11.600;2023-12-04T10:37:02;3.00;81.70
26954;DHT22;14508;50.924;11.600;2023-12-04T10:39:31;3.00;81.20
26954;DHT22;14508;50.924;11.600;2023-12-04T10:42:24;3.10;81.60
26954;DHT22;14508;50.924;11.600;2023-12-04T10:44:55;3.00;80.30
26954;DHT22;14508;50.924;11.600;2023-12-04T10:47:24;3.10;80.10
26954;DHT22;14508;50.924;11.600;2023-12-04T10:49:53;3.10;79.90
26954;DHT22;14508;50.924;11.600;2023-12-04T10:52:21;3.20;80.40
26954;DHT22;14508;50.924;11.600;2023-12-04T10:54:51;3.30;79.50
26954;DHT22;14508;50.924;11.600;2023-12-04T10:57:22;3.30;78.60
26954;DHT22;14508;50.924;11.600;2023-12-04T10:59:56;3.30;78.20
26954;DHT22;14508;50.924;11.600;2023-12-04T11:02:26;3.30;78.40
26954;DHT22;14508;50.924;11.600;2023-12-04T11:04:57;3.30;78.30
26954;DHT22;14508;50.924;11.600;2023-12-04T11:07:26;3.30;78.00
26954;DHT22;14508;50.924;11.600;2023-12-04T11:09:58;3.40;78.50
26954;DHT22;14508;50.924;11.600;2023-12-04T11:12:29;3.40;78.10
26954;DHT22;14508;50.924;11.600;2023-12-04T11:15:02;3.40;78.00
26954;DHT22;14508;50.924;11.600;2023-12-04T11:17:34;3.30;77.40
26954;DHT22;14508;50.924;11.600;2023-12-04T11:20:07;3.30;75.80
26954;DHT22;14508;50.924;11.600;2023-12-04T11:22:38;3.20;75.70
26954;DHT22;14508;50.924;11.600;2023-12-04T11:25:08;3.10;75.20
26954;DHT22;14508;50.924;11.600;2023-12-04T11:27:41;3.00;75.10
26954;DHT22;14508;50.924;11.600;2023-12-04T11:30:11;3.00;75.30
26954;DHT22;14508;50.924;11.600;2023-12-04T11:32:44;3.00;75.40
26954;DHT22;14508;50.924;11.600;2023-12-04T11:35:13;2.90;74.80
26954;DHT22;14508;50.924;11.600;2023-12-04T11:37:42;2.90;75.40
26954;DHT22;14508;50.924;11.600;2023-12-04T11:40:14;3.00;75.90
26954;DHT22;14508;50.924;11.600;2023-12-04T11:42:42;3.00;75.80
26954;DHT22;14508;50.924;11.600;2023-12-04T11:45:18;3.00;76.30
26954;DHT22;14508;50.924;11.600;2023-12-04T11:47:49;3.10;76.50
26954;DHT22;14508;50.924;11.600;2023-12-04T11:50:18;3.20;76.90
26954;DHT22;14508;50.924;11.600;2023-12-04T11:52:47;3.20;76.50
26954;DHT22;14508;50.924;11.600;2023-12-04T11:55:17;3.20;77.60
26954;DHT22;14508;50.924;11.600;2023-12-04T11:57:50;3.20;77.10
26954;DHT22;14508;50.924;11.600;2023-12-04T12:00:20;3.20;77.20
26954;DHT22;14508;50.924;11.600;2023-12-04T12:03:01;3.20;77.20
26954;DHT22;14508;50.924;11.600;2023-12-04T12:05:49;3.20;77.40
26954;DHT22;14508;50.924;11.600;2023-12-04T12:08:20;3.20;76.70
26954;DHT22;14508;50.924;11.600;2023-12-04T12:10:51;3.20;77.60
26954;DHT22;14508;50.924;11.600;2023-12-04T12:13:20;3.20;77.70
26954;DHT22;14508;50.924;11.600;2023-12-04T12:15:51;3.20;77.60
26954;DHT22;14508;50.924;11.600;2023-12-04T12:18:21;3.10;77.50
26954;DHT22;14508;50.924;11.600;2023-12-04T12:20:50;3.10;77.10
26954;DHT22;14508;50.924;11.600;2023-12-04T12:23:17;3.00;77.10
26954;DHT22;14508;50.924;11.600;2023-12-04T12:25:46;3.10;77.00
26954;DHT22;14508;50.924;11.600;2023-12-04T12:28:15;3.10;77.20
26954;DHT22;14508;50.924;11.600;2023-12-04T12:30:44;3.00;77.30
26954;DHT22;14508;50.924;11.600;2023-12-04T12:33:13;3.00;76.90
26954;DHT22;14508;50.924;11.600;2023-12-04T12:35:41;2.90;77.50
26954;DHT22;14508;50.924;11.600;2023-12-04T12:38:18;3.00;77.70
26954;DHT22;14508;50.924;11.600;2023-12-04T12:40:46;3.00;78.00
26954;DHT22;14508;50.924;11.600;2023-12-04T12:43:15;3.00;77.80
26954;DHT22;14508;50.924;11.600;2023-12-04T12:45:44;3.00;79.20
26954;DHT22;14508;50.924;11.600;2023-12-04T12:48:15;3.00;78.90
26954;DHT22;14508;50.924;11.600;2023-12-04T12:50:43;3.00;79.10
26954;DHT22;14508;50.924;11.600;2023-12-04T12:53:12;3.10;78.70
26954;DHT22;14508;50.924;11.600;2023-12-04T12:55:44;3.10;79.00
26954;DHT22;14508;50.924;11.600;2023-12-04T12:58:17;3.10;79.00
26954;DHT22;14508;50.924;11.600;2023-12-04T13:00:47;3.10;78.80
26954;DHT22;14508;50.924;11.600;2023-12-04T13:03:16;3.20;78.30
26954;DHT22;14508;50.924;11.600;2023-12-04T13:05:45;3.20;77.90
26954;DHT22;14508;50.924;11.600;2023-12-04T13:08:13;3.10;77.60
26954;DHT22;14508;50.924;11.600;2023-12-04T13:10:41;3.10;77.50
26954;DHT22;14508;50.924;11.600;2023-12-04T13:13:09;3.10;76.60
26954;DHT22;14508;50.924;11.600;2023-12-04T13:15:39;3.20;76.80
26954;DHT22;14508;50.924;11.600;2023-12-04T13:18:08;3.20;77.30
26954;DHT22;14508;50.924;11.600;2023-12-04T13:20:36;3.20;77.20
26954;DHT22;14508;50.924;11.600;2023-12-04T13:23:04;3.30;76.70
26954;DHT22;14508;50.924;11.600;2023-12-04T13:25:32;3.30;77.10
26954;DHT22;14508;50.924;11.600;2023-12-04T13:28:00;3.40;77.20
26954;DHT22;14508;50.924;11.600;2023-12-04T13:30:28;3.40;76.90
26954;DHT22;14508;50.924;11.600;2023-12-04T13:32:57;3.30;75.90
26954;DHT22;14508;50.924;11.600;2023-12-04T13:35:25;3.30;76.30
26954;DHT22;14508;50.924;11.600;2023-12-04T13:37:54;3.20;76.20
26954;DHT22;14508;50.924;11.600;2023-12-04T13:40:23;3.10;76.70
26954;DHT22;14508;50.924;11.600;2023-12-04T13:42:54;3.10;77.30
26954;DHT22;14508;50.924;11.600;2023-12-04T13:45:40;3.10;76.90
26954;DHT22;14508;50.924;11.600;2023-12-04T13:48:09;3.10;77.10
26954;DHT22;14508;50.924;11.600;2023-12-04T13:50:40;3.10;77.00
26954;DHT22;14508;50.924;11.600;2023-12-04T13:53:08;3.00;76.70
26954;DHT22;14508;50.924;11.600;2023-12-04T13:55:36;2.90;77.30
26954;DHT22;14508;50.924;11.600;2023-12-04T13:58:22;2.90;77.50
26954;DHT22;14508;50.924;11.600;2023-12-04T14:01:06;2.90;78.10
26954;DHT22;14508;50.924;11.600;2023-12-04T14:03:42;2.80;78.00
26954;DHT22;14508;50.924;11.600;2023-12-04T14:06:11;2.70;78.60
26954;DHT22;14508;50.924;11.600;2023-12-04T14:08:40;2.70;78.40
26954;DHT22;14508;50.924;11.600;2023-12-04T14:11:09;2.70;78.50
26954;DHT22;14508;50.924;11.600;2023-12-04T14:13:38;2.60;78.00
26954;DHT22;14508;50.924;11.600;2023-12-04T14:16:08;2.60;78.80
26954;DHT22;14508;50.924;11.600;2023-12-04T14:18:36;2.60;79.40
26954;DHT22;14508;50.924;11.600;2023-12-04T14:21:06;2.60;79.80
26954;DHT22;14508;50.924;11.600;2023-12-04T14:23:34;2.50;80.40
26954;DHT22;14508;50.924;11.600;2023-12-04T14:26:03;2.50;79.70
26954;DHT22;14508;50.924;11.600;2023-12-04T14:28:31;2.40;79.20
26954;DHT22;14508;50.924;11.600;2023-12-04T14:31:08;2.40;80.50
26954;DHT22;14508;50.924;11.600;2023-12-04T14:33:37;2.40;80.90
26954;DHT22;14508;50.924;11.600;2023-12-04T14:36:11;2.30;80.60
26954;DHT22;14508;50.924;11.600;2023-12-04T14:38:40;2.20;81.40
26954;DHT22;14508;50.924;11.600;2023-12-04T14:41:08;2.20;81.60
26954;DHT22;14508;50.924;11.600;2023-12-04T14:43:37;2.10;82.20
26954;DHT22;14508;50.924;11.600;2023-12-04T14:46:06;2.20;83.30
26954;DHT22;14508;50.924;11.600;2023-12-04T14:48:37;2.10;83.10
26954;DHT22;14508;50.924;11.600;2023-12-04T14:51:07;2.20;83.10
26954;DHT22;14508;50.924;11.600;2023-12-04T14:53:39;2.10;82.80
26954;DHT22;14508;50.924;11.600;2023-12-04T14:56:18;2.10;83.20
26954;DHT22;14508;50.924;11.600;2023-12-04T14:58:54;2.10;83.60
26954;DHT22;14508;50.924;11.600;2023-12-04T15:01:47;2.10;83.80
26954;DHT22;14508;50.924;11.600;2023-12-04T15:04:33;2.00;84.20
26954;DHT22;14508;50.924;11.600;2023-12-04T15:07:15;2.00;84.60
26954;DHT22;14508;50.924;11.600;2023-12-04T15:10:11;2.00;85.60
26954;DHT22;14508;50.924;11.600;2023-12-04T15:13:08;1.90;85.80
26954;DHT22;14508;50.924;11.600;2023-12-04T15:15:53;1.90;85.40
26954;DHT22;14508;50.924;11.600;2023-12-04T15:18:44;1.80;86.10
26954;DHT22;14508;50.924;11.600;2023-12-04T15:21:33;1.80;86.90
26954;DHT22;14508;50.924;11.600;2023-12-04T15:24:00;1.80;87.40
26954;DHT22;14508;50.924;11.600;2023-12-04T15:26:30;1.80;87.70
26954;DHT22;14508;50.924;11.600;2023-12-04T15:28:59;1.70;88.20
26954;DHT22;14508;50.924;11.600;2023-12-04T15:31:29;1.70;89.20
26954;DHT22;14508;50.924;11.600;2023-12-04T15:34:01;1.70;89.60
26954;DHT22;14508;50.924;11.600;2023-12-04T15:36:43;1.70;89.40
26954;DHT22;14508;50.924;11.600;2023-12-04T15:39:29;1.60;89.90